createdAt,value
2022-10-31T00:00:56.912Z,4.28
2022-10-31T00:03:24.480Z,4.63
2022-10-31T00:05:51.909Z,4.55
2022-10-31T00:08:19.916Z,4.20
2022-10-31T00:10:47.638Z,3.75
2022-10-31T00:13:16.255Z,3.95
2022-10-31T00:15:43.822Z,2.80
2022-10-31T00:18:12.188Z,3.65
2022-10-31T00:20:40.058Z,4.05
2022-10-31T00:23:08.560Z,3.78
2022-10-31T00:25:39.143Z,3.60
2022-10-31T00:28:08.225Z,2.90
2022-10-31T00:30:35.722Z,4.20
2022-10-31T00:33:06.529Z,2.10
2022-10-31T00:35:34.017Z,3.72
2022-10-31T00:38:01.713Z,3.85
2022-10-31T00:40:29.090Z,4.15
2022-10-31T00:42:56.553Z,4.13
2022-10-31T00:45:24.381Z,3.42
2022-10-31T00:47:52.003Z,4.15
2022-10-31T00:50:19.467Z,3.83
2022-10-31T00:52:46.862Z,3.95
2022-10-31T00:55:14.293Z,3.30
2022-10-31T00:57:41.717Z,3.53
2022-10-31T01:00:10.123Z,2.92
2022-10-31T01:02:37.683Z,3.60
2022-10-31T01:05:05.561Z,3.58
2022-10-31T01:07:32.999Z,2.33
2022-10-31T01:10:01.016Z,3.13
2022-10-31T01:12:30.108Z,3.20
2022-10-31T01:14:58.049Z,2.83
2022-10-31T01:17:25.542Z,1.95
2022-10-31T01:19:52.903Z,2.75
2022-10-31T01:22:20.284Z,3.53
2022-10-31T01:24:47.733Z,3.40
2022-10-31T01:27:15.059Z,2.65
2022-10-31T01:29:42.481Z,2.78
2022-10-31T01:32:09.959Z,3.85
2022-10-31T01:34:37.336Z,4.20
2022-10-31T01:37:04.733Z,3.33
2022-10-31T01:39:34.566Z,2.40
2022-10-31T01:42:02.316Z,3.33
2022-10-31T01:44:29.647Z,2.63
2022-10-31T01:47:06.843Z,3.47
2022-10-31T01:49:39.278Z,3.42
2022-10-31T01:52:13.501Z,2.72
2022-10-31T01:54:48.767Z,3.40
2022-10-31T01:57:17.561Z,3.60
2022-10-31T01:59:50.128Z,2.97
2022-10-31T02:02:19.635Z,4.10
2022-10-31T02:04:49.077Z,4.18
2022-10-31T02:07:28.063Z,2.92
2022-10-31T02:10:01.562Z,3.85
2022-10-31T02:12:33.058Z,4.28
2022-10-31T02:15:01.914Z,3.78
2022-10-31T02:17:32.718Z,3.78
2022-10-31T02:20:09.902Z,4.22
2022-10-31T02:22:53.576Z,2.85
2022-10-31T02:25:42.479Z,3.65
2022-10-31T02:28:22.548Z,3.85
2022-10-31T02:31:16.904Z,4.10
2022-10-31T02:33:55.107Z,3.95
2022-10-31T02:36:53.849Z,4.40
2022-10-31T02:39:36.216Z,3.75
2022-10-31T02:42:36.235Z,4.65
2022-10-31T02:45:10.399Z,4.13
2022-10-31T02:47:43.004Z,3.92
2022-10-31T02:50:24.900Z,4.40
2022-10-31T02:52:53.778Z,3.25
2022-10-31T02:55:24.270Z,3.78
2022-10-31T02:57:57.827Z,4.78
2022-10-31T03:00:26.727Z,3.45
2022-10-31T03:03:18.496Z,4.13
2022-10-31T03:06:15.843Z,3.75
2022-10-31T03:09:02.882Z,5.40
2022-10-31T03:11:45.293Z,4.60
2022-10-31T03:14:21.415Z,4.38
2022-10-31T03:16:58.973Z,3.63
2022-10-31T03:19:43.353Z,2.03
2022-10-31T03:22:19.208Z,2.80
2022-10-31T03:24:50.257Z,3.50
2022-10-31T03:27:25.006Z,4.32
2022-10-31T03:29:57.485Z,3.63
2022-10-31T03:32:44.517Z,3.72
2022-10-31T03:35:17.105Z,4.68
2022-10-31T03:37:46.404Z,4.28
2022-10-31T03:40:17.619Z,4.13
2022-10-31T03:42:53.075Z,3.47
2022-10-31T03:45:27.332Z,2.92
2022-10-31T03:47:56.137Z,4.30
2022-10-31T03:50:27.099Z,4.55
2022-10-31T03:53:02.704Z,3.33
2022-10-31T03:55:55.165Z,3.78
2022-10-31T03:58:28.998Z,3.80
2022-10-31T04:00:58.827Z,3.08
2022-10-31T04:03:36.332Z,2.53
2022-10-31T04:06:08.529Z,4.22
2022-10-31T04:08:51.166Z,4.32
2022-10-31T04:11:24.643Z,3.60
2022-10-31T04:14:13.243Z,4.75
2022-10-31T04:16:45.292Z,3.55
2022-10-31T04:19:13.823Z,2.80
2022-10-31T04:21:44.512Z,4.35
2022-10-31T04:24:12.705Z,2.75
2022-10-31T04:26:41.065Z,3.58
2022-10-31T04:29:08.591Z,3.83
2022-10-31T04:31:35.967Z,4.43
2022-10-31T04:34:03.429Z,3.50
2022-10-31T04:36:30.987Z,3.00
2022-10-31T04:38:58.629Z,3.38
2022-10-31T04:41:48.132Z,3.47
2022-10-31T04:44:17.111Z,3.22
2022-10-31T04:46:47.932Z,2.70
2022-10-31T04:49:15.334Z,3.33
2022-10-31T04:51:43.115Z,3.28
2022-10-31T04:54:10.570Z,1.33
2022-10-31T04:56:55.856Z,3.15
2022-10-31T04:59:23.906Z,2.03
2022-10-31T05:01:55.191Z,3.25
2022-10-31T05:04:39.305Z,3.92
2022-10-31T05:07:06.873Z,2.42
2022-10-31T05:09:34.322Z,3.75
2022-10-31T05:12:01.674Z,2.58
2022-10-31T05:14:48.732Z,3.10
2022-10-31T05:17:45.915Z,3.83
2022-10-31T05:20:33.868Z,2.80
2022-10-31T05:23:03.991Z,3.10
2022-10-31T05:25:31.674Z,3.05
2022-10-31T05:28:03.651Z,3.78
2022-10-31T05:30:32.508Z,3.50
2022-10-31T05:33:00.891Z,3.83
2022-10-31T05:38:33.217Z,2.22
2022-10-31T05:41:10.592Z,3.03
2022-10-31T05:43:39.573Z,2.75
2022-10-31T05:46:07.850Z,2.95
2022-10-31T05:49:07.655Z,3.35
2022-10-31T05:52:10.239Z,3.58
2022-10-31T05:54:45.202Z,3.20
2022-10-31T05:57:12.578Z,3.40
2022-10-31T05:59:40.210Z,3.50
2022-10-31T06:02:07.890Z,3.42
2022-10-31T06:05:14.333Z,2.85
2022-10-31T06:07:42.593Z,3.50
2022-10-31T06:10:11.930Z,4.35
2022-10-31T06:12:41.792Z,3.10
2022-10-31T06:15:24.120Z,3.13
2022-10-31T06:18:05.238Z,3.20
2022-10-31T06:20:45.478Z,1.87
2022-10-31T06:23:12.941Z,2.97
2022-10-31T06:25:42.333Z,2.15
2022-10-31T06:28:12.191Z,3.20
2022-10-31T06:31:02.583Z,2.63
2022-10-31T06:33:32.120Z,2.70
2022-10-31T06:36:02.796Z,2.58
2022-10-31T06:38:30.476Z,2.78
2022-10-31T06:40:58.956Z,3.00
2022-10-31T06:43:27.932Z,2.40
2022-10-31T06:46:18.449Z,2.55
2022-10-31T06:49:08.364Z,2.15
2022-10-31T06:51:43.586Z,2.60
2022-10-31T06:54:10.985Z,2.88
2022-10-31T06:56:38.692Z,2.13
2022-10-31T06:59:06.371Z,1.75
2022-10-31T07:01:53.810Z,2.45
2022-10-31T07:04:21.442Z,2.45
2022-10-31T07:06:51.931Z,2.35
2022-10-31T07:09:20.624Z,1.80
2022-10-31T07:11:49.042Z,1.90
2022-10-31T07:14:16.650Z,2.10
2022-10-31T07:16:44.055Z,1.80
2022-10-31T07:19:15.026Z,2.17
2022-10-31T07:21:43.024Z,2.00
2022-10-31T07:24:14.716Z,1.70
2022-10-31T07:26:47.234Z,1.88
2022-10-31T07:29:15.597Z,1.90
2022-10-31T07:31:43.076Z,2.08
2022-10-31T07:34:15.941Z,2.10
2022-10-31T07:37:02.011Z,1.95
2022-10-31T07:39:30.915Z,1.65
2022-10-31T07:42:00.539Z,2.10
2022-10-31T07:44:28.647Z,1.48
2022-10-31T07:47:01.849Z,1.60
2022-10-31T07:49:49.399Z,2.58
2022-10-31T07:52:37.008Z,1.33
2022-10-31T07:55:24.318Z,1.90
2022-10-31T07:58:03.063Z,2.30
2022-10-31T08:00:32.510Z,1.70
2022-10-31T08:03:01.507Z,2.30
2022-10-31T08:05:47.652Z,2.03
2022-10-31T08:08:36.070Z,1.58
2022-10-31T08:11:06.826Z,1.50
2022-10-31T08:13:36.062Z,1.73
2022-10-31T08:16:05.599Z,1.67
2022-10-31T08:18:38.691Z,1.88
2022-10-31T08:21:12.992Z,1.50
2022-10-31T08:23:41.597Z,1.70
2022-10-31T08:26:09.289Z,1.50
2022-10-31T08:28:36.947Z,2.00
2022-10-31T08:31:04.507Z,1.58
2022-10-31T08:33:41.003Z,1.67
2022-10-31T08:36:21.787Z,1.60
2022-10-31T08:38:57.746Z,1.50
2022-10-31T08:41:29.430Z,1.63
2022-10-31T08:43:57.092Z,1.80
2022-10-31T08:46:24.593Z,2.03
2022-10-31T08:48:52.194Z,1.95
2022-10-31T08:51:20.663Z,1.67
2022-10-31T08:54:04.284Z,1.77
2022-10-31T08:57:17.260Z,1.92
2022-10-31T09:00:18.276Z,1.90
2022-10-31T09:03:22.259Z,1.80
2022-10-31T16:22:49.192Z,5.22
2022-10-31T16:25:38.149Z,3.83
2022-10-31T16:28:24.548Z,3.10
2022-10-31T16:30:56.776Z,4.10
2022-10-31T16:33:38.990Z,3.65
2022-10-31T16:36:36.324Z,2.95
2022-10-31T16:39:04.754Z,3.67
2022-10-31T16:41:35.900Z,3.65
2022-10-31T16:44:05.755Z,3.92
2022-10-31T16:46:33.243Z,4.15
2022-10-31T16:49:00.568Z,3.85
2022-10-31T16:51:27.982Z,4.47
2022-10-31T16:53:56.134Z,4.15
2022-10-31T16:56:31.091Z,4.90
2022-10-31T16:59:08.223Z,4.30
2022-10-31T17:01:37.449Z,4.70
2022-10-31T17:04:04.895Z,4.43
2022-10-31T17:06:32.316Z,4.90
2022-10-31T17:09:00.954Z,4.25
2022-10-31T17:11:29.782Z,4.47
2022-10-31T17:14:03.667Z,3.60
2022-10-31T17:16:34.255Z,4.07
2022-10-31T17:19:04.651Z,3.03
2022-10-31T17:21:32.749Z,4.07
2022-10-31T17:24:00.477Z,3.80
2022-10-31T17:26:28.040Z,3.63
2022-10-31T17:29:02.118Z,3.88
2022-10-31T17:31:33.344Z,4.28
2022-10-31T17:34:02.571Z,4.53
2022-10-31T17:36:32.558Z,4.15
2022-10-31T17:39:00.572Z,3.92
2022-10-31T17:41:28.442Z,3.80
2022-10-31T17:43:56.928Z,3.85
2022-10-31T17:46:24.826Z,4.18
2022-10-31T17:48:54.722Z,4.70
2022-10-31T17:51:22.193Z,3.95
2022-10-31T17:53:49.717Z,4.63
2022-10-31T17:56:17.449Z,3.58
2022-10-31T17:58:44.940Z,4.30
2022-10-31T18:01:16.279Z,4.32
2022-10-31T18:03:44.524Z,3.90
2022-10-31T18:06:14.644Z,4.03
2022-10-31T18:08:42.606Z,4.30
2022-10-31T18:11:21.961Z,4.50
2022-10-31T18:14:12.459Z,4.50
2022-10-31T18:16:41.601Z,3.90
2022-10-31T18:19:13.527Z,4.15
2022-10-31T18:21:41.070Z,4.18
2022-10-31T18:24:10.205Z,4.63
2022-10-31T18:26:37.796Z,4.07
2022-10-31T18:29:07.148Z,4.18
2022-10-31T18:31:34.717Z,3.10
2022-10-31T18:34:02.166Z,4.07
2022-10-31T18:36:29.915Z,4.82
2022-10-31T18:38:57.752Z,4.55
2022-10-31T18:41:25.434Z,3.30
2022-10-31T18:43:56.409Z,4.60
2022-10-31T18:46:23.912Z,5.05
2022-10-31T18:48:51.383Z,5.25
2022-10-31T18:51:18.974Z,7.25
2022-10-31T18:53:54.186Z,6.25
2022-10-31T18:56:22.886Z,5.10
2022-10-31T18:58:56.566Z,5.38
2022-10-31T19:01:26.791Z,4.80
2022-10-31T19:03:55.986Z,4.80
2022-10-31T19:06:25.952Z,4.97
2022-10-31T19:09:01.812Z,5.35
2022-10-31T19:11:32.742Z,5.18
2022-10-31T19:14:00.566Z,5.43
2022-10-31T19:16:28.989Z,9.63
2022-10-31T19:19:00.280Z,9.93
2022-10-31T19:21:28.395Z,15.13
2022-10-31T19:23:56.642Z,7.70
2022-10-31T19:26:25.384Z,20.10
2022-10-31T19:28:54.619Z,10.02
2022-10-31T19:31:22.531Z,27.17
2022-10-31T19:33:50.707Z,7.28
2022-10-31T19:36:20.906Z,11.85
2022-10-31T19:38:52.144Z,13.27
2022-10-31T19:41:23.551Z,16.60
2022-10-31T19:43:52.263Z,24.80
2022-10-31T19:46:22.945Z,12.90
2022-10-31T19:49:01.546Z,10.00
2022-10-31T19:51:29.936Z,16.30
2022-10-31T19:53:57.503Z,22.42
2022-10-31T19:56:26.132Z,12.20
2022-10-31T19:58:53.791Z,9.02
2022-10-31T20:01:23.937Z,12.23
2022-10-31T20:03:52.305Z,16.83
2022-10-31T20:06:24.855Z,15.48
2022-10-31T20:08:52.719Z,22.98
2022-10-31T20:11:22.320Z,23.27
2022-10-31T20:13:50.046Z,25.33
2022-10-31T20:16:19.057Z,21.27
2022-10-31T20:18:48.093Z,23.70
2022-10-31T20:21:21.994Z,19.17
2022-10-31T20:23:50.573Z,20.88
2022-10-31T20:26:20.284Z,12.73
2022-10-31T20:28:47.821Z,17.52
2022-10-31T20:31:18.165Z,9.10
2022-10-31T20:33:45.728Z,18.60
2022-10-31T20:36:13.770Z,10.05
2022-10-31T20:38:42.608Z,20.42
2022-10-31T20:41:11.462Z,24.10
2022-10-31T20:43:39.371Z,17.40
2022-10-31T20:46:12.502Z,17.15
2022-10-31T20:48:40.388Z,17.10
2022-10-31T20:51:12.013Z,22.65
2022-10-31T20:53:39.903Z,21.73
2022-10-31T20:56:15.810Z,24.05
2022-10-31T20:58:44.591Z,13.27
2022-10-31T21:01:23.248Z,9.93
2022-10-31T21:03:51.916Z,21.25
2022-10-31T21:06:20.915Z,15.75
2022-10-31T21:08:49.005Z,17.92
2022-10-31T21:11:19.250Z,12.85
2022-10-31T21:13:48.383Z,13.15
2022-10-31T21:16:22.382Z,8.80
2022-10-31T21:18:50.537Z,10.32
2022-10-31T21:21:21.051Z,19.33
2022-10-31T21:23:48.638Z,9.73
2022-10-31T21:26:19.576Z,5.78
2022-10-31T21:28:47.922Z,6.15
2022-10-31T21:31:18.057Z,5.65
2022-10-31T21:33:52.672Z,4.75
2022-10-31T21:36:21.526Z,8.25
2022-10-31T21:38:52.846Z,5.72
2022-10-31T21:41:20.908Z,5.65
2022-10-31T21:43:50.662Z,4.20
2022-10-31T21:46:20.572Z,3.97
2022-10-31T21:48:48.849Z,3.60
2022-10-31T21:51:19.093Z,6.50
2022-10-31T21:54:05.468Z,11.70
2022-10-31T21:56:33.725Z,14.85
2022-10-31T21:59:01.649Z,8.02
2022-10-31T22:01:30.285Z,8.02
2022-10-31T22:03:58.959Z,12.70
2022-10-31T22:06:28.127Z,10.07
2022-10-31T22:08:55.619Z,15.63
2022-10-31T22:11:23.298Z,15.45
2022-10-31T22:13:51.159Z,4.03
2022-10-31T22:16:22.210Z,21.95
2022-10-31T22:18:54.191Z,9.60
2022-10-31T22:21:24.419Z,11.57
2022-10-31T22:23:57.956Z,13.43
2022-10-31T22:26:28.165Z,14.30
2022-10-31T22:29:02.544Z,15.05
2022-10-31T22:31:31.952Z,14.65
2022-10-31T22:33:59.756Z,21.65
2022-10-31T22:36:29.627Z,7.47
2022-10-31T22:38:57.865Z,11.90
2022-10-31T22:41:28.042Z,20.90
2022-10-31T22:43:56.256Z,22.17
2022-10-31T22:46:26.982Z,15.30
2022-10-31T22:49:02.527Z,16.38
2022-10-31T22:51:32.465Z,10.52
2022-10-31T22:54:00.460Z,20.98
2022-10-31T22:56:30.598Z,16.00
2022-10-31T22:58:59.068Z,18.42
2022-10-31T23:01:30.554Z,19.80
2022-10-31T23:03:58.668Z,12.30
2022-10-31T23:06:30.420Z,24.80
2022-10-31T23:08:59.327Z,20.08
2022-10-31T23:11:32.917Z,6.38
2022-10-31T23:14:14.269Z,25.65
2022-10-31T23:16:53.985Z,20.45
2022-10-31T23:19:26.672Z,17.88
2022-10-31T23:22:00.669Z,7.20
2022-10-31T23:24:42.856Z,6.18
2022-10-31T23:27:12.154Z,9.43
2022-10-31T23:29:39.531Z,10.95
2022-10-31T23:32:11.071Z,9.98
2022-10-31T23:34:38.805Z,22.33
2022-10-31T23:39:33.907Z,16.30
2022-10-31T23:42:01.694Z,9.88
2022-10-31T23:44:29.225Z,16.15
2022-10-31T23:46:56.781Z,15.88
2022-10-31T23:49:24.347Z,25.98
2022-10-31T23:51:52.193Z,22.42
2022-10-31T23:54:19.709Z,29.25
2022-10-31T23:56:47.197Z,21.33
2022-10-31T23:59:14.587Z,26.55
